Time;durP1;ratioP1;P1;durP2;ratioP2;P2;SDS_P1;SDS_P2;PMS_P1;PMS_P2;Temp;Humidity;BMP_temperature;BMP_pressure;BME280_temperature;BME280_humidity;BME280_pressure;Samples;Min_cycle;Max_cycle;Signal;HPM_P1;HPM_P2
2023/06/16 00:01:09;;;;;;;6.60;3.80;;;;;;;16.40;100.00;99787.92;105299;1259;73572;-66
2023/06/16 00:03:37;;;;;;;9.80;4.10;;;;;;;16.36;100.00;99784.11;105308;1264;65851;-77
2023/06/16 00:06:12;;;;;;;10.20;3.60;;;;;;;16.32;100.00;99785.92;104859;1260;71644;-67
2023/06/16 00:08:46;;;;;;;9.80;3.90;;;;;;;16.28;100.00;99789.39;104739;1261;60650;-65
2023/06/16 00:11:14;;;;;;;4.60;3.50;;;;;;;16.25;100.00;99787.95;104910;1260;192290;-66
2023/06/16 00:13:42;;;;;;;9.30;4.20;;;;;;;16.22;100.00;99788.10;104995;1264;72685;-66
2023/06/16 00:16:10;;;;;;;8.20;4.30;;;;;;;16.20;100.00;99782.38;105249;1265;67327;-79
2023/06/16 00:18:43;;;;;;;6.70;4.00;;;;;;;16.18;100.00;99781.91;105010;1264;72942;-69
2023/06/16 00:21:13;;;;;;;11.00;4.50;;;;;;;16.17;100.00;99783.10;104887;1265;60477;-66
2023/06/16 00:23:43;;;;;;;7.90;3.70;;;;;;;16.15;100.00;99774.02;104906;1261;60549;-66
2023/06/16 00:26:10;;;;;;;6.00;3.70;;;;;;;16.13;100.00;99774.55;105198;1260;72344;-71
2023/06/16 00:28:38;;;;;;;7.90;3.70;;;;;;;16.10;100.00;99775.75;105106;1263;65969;-65
2023/06/16 00:31:06;;;;;;;7.20;3.40;;;;;;;16.06;100.00;99774.20;105055;1264;72753;-67
2023/06/16 00:33:36;;;;;;;6.90;4.00;;;;;;;16.03;100.00;99774.56;104966;1260;60729;-66
2023/06/16 00:36:03;;;;;;;6.40;3.50;;;;;;;16.02;100.00;99778.23;105209;1264;60476;-78
2023/06/16 00:38:30;;;;;;;8.20;4.00;;;;;;;16.03;100.00;99775.14;104590;1273;74544;-67
2023/06/16 00:40:57;;;;;;;6.20;4.00;;;;;;;16.04;100.00;99771.27;104821;1263;67140;-64
2023/06/16 00:43:24;;;;;;;12.30;4.20;;;;;;;16.05;100.00;99770.76;104831;1263;72883;-65
2023/06/16 00:45:51;;;;;;;7.10;3.30;;;;;;;16.05;100.00;99775.38;104784;1260;61058;-67
2023/06/16 00:48:19;;;;;;;7.50;3.80;;;;;;;16.05;100.00;99780.69;104786;1260;60885;-65
2023/06/16 00:50:46;;;;;;;7.30;3.80;;;;;;;16.05;100.00;99780.69;104869;1263;73860;-65
2023/06/16 00:53:16;;;;;;;6.40;3.90;;;;;;;16.04;100.00;99778.84;105019;1264;67037;-64
2023/06/16 00:55:43;;;;;;;9.70;4.10;;;;;;;16.04;100.00;99781.84;105017;1259;71458;-70
2023/06/16 00:58:10;;;;;;;7.90;3.90;;;;;;;16.02;100.00;99776.13;104908;1264;60640;-78
2023/06/16 01:00:38;;;;;;;9.90;4.30;;;;;;;16.00;100.00;99780.58;105099;1258;60481;-68
2023/06/16 01:03:05;;;;;;;9.80;3.70;;;;;;;15.99;100.00;99782.94;104876;1260;72668;-68
2023/06/16 01:05:32;;;;;;;6.90;3.70;;;;;;;15.98;100.00;99781.45;104687;1264;67770;-66
2023/06/16 01:08:38;;;;;;;7.60;3.40;;;;;;;15.99;100.00;99783.30;106455;1263;74671;-65
2023/06/16 01:11:38;;;;;;;6.40;3.80;;;;;;;16.00;100.00;99780.05;104740;1266;60458;-68
2023/06/16 01:14:56;;;;;;;6.10;3.70;;;;;;;15.98;100.00;99783.69;104816;1261;60974;-67
2023/06/16 01:17:23;;;;;;;8.10;3.80;;;;;;;15.96;100.00;99787.86;105164;1261;73855;-66
2023/06/16 01:20:01;;;;;;;9.70;4.00;;;;;;;15.95;100.00;99788.59;104948;1264;67220;-65
2023/06/16 01:22:53;;;;;;;6.40;3.80;;;;;;;15.95;100.00;99786.21;104839;1260;71287;-79
2023/06/16 01:25:22;;;;;;;6.20;3.80;;;;;;;15.96;100.00;99785.18;105037;1263;60631;-68
2023/06/16 01:27:52;;;;;;;8.00;3.30;;;;;;;15.96;100.00;99787.66;104865;1260;60557;-67
2023/06/16 01:30:22;;;;;;;8.10;4.10;;;;;;;15.96;100.00;99784.66;104914;1262;74324;-79
2023/06/16 01:32:53;;;;;;;8.50;3.70;;;;;;;15.97;100.00;99784.35;105016;1266;66039;-68
2023/06/16 01:35:20;;;;;;;6.20;3.20;;;;;;;15.98;100.00;99786.31;105007;1261;72715;-70
2023/06/16 01:37:50;;;;;;;5.50;3.30;;;;;;;15.99;100.00;99788.48;104925;1264;60881;-68
2023/06/16 01:40:18;;;;;;;6.90;3.70;;;;;;;16.01;100.00;99791.17;106619;1260;60553;-67
2023/06/16 01:42:49;;;;;;;7.40;3.50;;;;;;;16.03;100.00;99794.55;104922;1270;72767;-65
2023/06/16 01:45:16;;;;;;;6.40;3.40;;;;;;;16.06;100.00;99798.34;104792;1265;66581;-65
2023/06/16 01:47:43;;;;;;;7.30;3.40;;;;;;;16.10;100.00;99795.33;105345;1263;72723;-67
2023/06/16 01:50:14;;;;;;;5.90;3.20;;;;;;;16.14;100.00;99794.29;104800;1260;61885;-69
2023/06/16 01:52:43;;;;;;;5.70;3.30;;;;;;;16.18;100.00;99789.18;104880;1261;60746;-67
2023/06/16 01:55:10;;;;;;;7.40;3.70;;;;;;;16.22;100.00;99790.52;104875;1261;72907;-64
2023/06/16 01:57:37;;;;;;;7.80;3.60;;;;;;;16.26;100.00;99790.35;104960;1263;67150;-65
2023/06/16 02:00:24;;;;;;;7.10;3.30;;;;;;;16.33;100.00;99789.64;104849;1265;72586;-65
2023/06/16 02:03:19;;;;;;;10.40;3.70;;;;;;;16.41;100.00;99796.65;104967;1264;60823;-79
2023/06/16 02:05:47;;;;;;;7.20;3.20;;;;;;;16.51;100.00;99795.38;105075;1260;60476;-68
2023/06/16 02:08:15;;;;;;;9.20;3.30;;;;;;;16.61;100.00;99794.45;104911;1260;72544;-64
2023/06/16 02:10:43;;;;;;;6.20;3.40;;;;;;;16.82;100.00;99796.98;105511;1260;67106;-65
2023/06/16 02:13:11;;;;;;;4.60;3.20;;;;;;;17.19;100.00;99796.07;104885;1260;72587;-65
2023/06/16 02:15:38;;;;;;;5.40;2.90;;;;;;;17.68;100.00;99797.55;104886;1266;60329;-69
2023/06/16 02:18:09;;;;;;;5.20;3.30;;;;;;;18.18;100.00;99796.59;104944;1260;60717;-78
2023/06/16 02:20:37;;;;;;;8.40;3.30;;;;;;;18.63;100.00;99793.92;105082;1265;73886;-65
2023/06/16 02:23:05;;;;;;;5.70;2.70;;;;;;;18.88;100.00;99792.46;105468;1261;67127;-65
2023/06/16 02:25:32;;;;;;;6.90;3.30;;;;;;;18.94;100.00;99786.29;105062;1265;72720;-65
2023/06/16 02:27:59;;;;;;;5.80;3.10;;;;;;;18.94;100.00;99777.42;104879;1261;61053;-65
2023/06/16 02:30:27;;;;;;;7.70;3.60;;;;;;;19.01;100.00;99772.10;104846;1263;60865;-67
2023/06/16 02:32:57;;;;;;;6.30;2.90;;;;;;;19.22;100.00;99765.46;105722;1261;73874;-66
2023/06/16 02:35:29;;;;;;;7.30;3.00;;;;;;;19.68;100.00;99759.15;104699;1261;67841;-64
2023/06/16 02:37:56;;;;;;;6.40;3.80;;;;;;;20.27;100.00;99751.16;104847;1261;72721;-76
2023/06/16 02:40:23;;;;;;;6.20;3.60;;;;;;;20.90;100.00;99741.85;104752;1267;60540;-66
2023/06/16 02:42:49;;;;;;;7.00;4.00;;;;;;;21.49;100.00;99728.23;104752;1260;60380;-66
2023/06/16 02:45:17;;;;;;;5.70;3.00;;;;;;;21.90;100.00;99717.79;105514;1260;73665;-65
2023/06/16 02:47:45;;;;;;;10.60;3.40;;;;;;;22.31;100.00;99709.42;105145;1263;66172;-65
2023/06/16 02:50:12;;;;;;;5.20;3.20;;;;;;;22.76;100.00;99698.20;105369;1264;72782;-76
2023/06/16 02:52:41;;;;;;;5.90;3.40;;;;;;;23.19;100.00;99685.86;104605;1264;60634;-64
2023/06/16 02:55:09;;;;;;;7.20;3.80;;;;;;;23.58;100.00;99676.84;104871;1260;60310;-64
2023/06/16 02:57:41;;;;;;;6.00;3.40;;;;;;;24.16;100.00;99673.92;104741;1265;73080;-65
2023/06/16 03:00:10;;;;;;;5.30;3.10;;;;;;;24.84;100.00;99667.33;105459;1260;67126;-74
2023/06/16 03:02:52;;;;;;;4.60;3.10;;;;;;;25.20;100.00;99662.84;104725;1263;72680;-65
2023/06/16 03:05:20;;;;;;;5.70;3.50;;;;;;;24.99;100.00;99661.71;104934;1262;60458;-64
2023/06/16 03:07:48;;;;;;;6.60;3.60;;;;;;;24.50;100.00;99665.78;104885;1266;60866;-65
2023/06/16 03:10:15;;;;;;;4.10;3.30;;;;;;;23.89;100.00;99665.47;105251;1264;73922;-67
2023/06/16 03:12:56;;;;;;;6.40;3.80;;;;;;;23.23;100.00;99670.39;104757;1261;65348;-66
2023/06/16 03:15:25;;;;;;;5.90;3.30;;;;;;;22.66;100.00;99667.50;104913;1264;73096;-77
2023/06/16 03:17:52;;;;;;;6.50;3.70;;;;;;;22.17;100.00;99670.98;104810;1260;60950;-67
2023/06/16 03:20:21;;;;;;;7.10;3.90;;;;;;;21.79;100.00;99671.83;104749;1262;60540;-63
2023/06/16 03:22:53;;;;;;;7.70;4.30;;;;;;;21.47;100.00;99674.68;104741;1264;73918;-65
2023/06/16 03:25:21;;;;;;;6.90;3.30;;;;;;;21.18;100.00;99676.88;104727;1261;67280;-63
2023/06/16 03:27:48;;;;;;;6.10;2.90;;;;;;;20.93;100.00;99678.63;104734;1261;72834;-68
2023/06/16 03:30:22;;;;;;;6.10;3.40;;;;;;;20.64;100.00;99679.84;104783;1263;60855;-69
2023/06/16 03:33:04;;;;;;;7.50;3.70;;;;;;;20.35;100.00;99681.41;104823;1259;60563;-67
2023/06/16 03:35:33;;;;;;;8.00;3.70;;;;;;;20.12;100.00;99685.06;105019;1260;73910;-69
2023/06/16 03:38:01;;;;;;;9.60;3.80;;;;;;;19.95;100.00;99679.48;104931;1260;67821;-63
2023/06/16 03:40:30;;;;;;;5.90;3.30;;;;;;;19.78;100.00;99678.83;104933;1265;71177;-64
2023/06/16 03:42:57;;;;;;;5.80;3.40;;;;;;;19.59;100.00;99677.30;104755;1264;60790;-64
2023/06/16 03:45:24;;;;;;;8.20;3.60;;;;;;;19.48;100.00;99679.02;104835;1260;60478;-63
2023/06/16 03:47:52;;;;;;;8.50;3.60;;;;;;;19.41;100.00;99676.27;104967;1261;74361;-74
2023/06/16 03:50:19;;;;;;;11.40;4.00;;;;;;;19.35;100.00;99681.16;104885;1263;65863;-68
2023/06/16 03:52:47;;;;;;;8.60;3.70;;;;;;;19.31;100.00;99688.05;104779;1259;72191;-63
2023/06/16 03:55:20;;;;;;;6.50;3.30;;;;;;;19.26;100.00;99688.39;104776;1261;61920;-64
2023/06/16 03:57:47;;;;;;;6.10;3.20;;;;;;;19.28;100.00;99694.67;104579;1260;60559;-65
2023/06/16 04:00:14;;;;;;;6.50;3.90;;;;;;;19.28;100.00;99698.81;104771;1261;73759;-63
2023/06/16 04:02:48;;;;;;;6.00;3.50;;;;;;;19.22;100.00;99699.45;104751;1263;67237;-64
2023/06/16 04:05:23;;;;;;;5.80;3.30;;;;;;;19.19;100.00;99699.48;105078;1260;72521;-71
2023/06/16 04:07:54;;;;;;;5.90;3.70;;;;;;;19.20;100.00;99701.29;104850;1261;60312;-63
2023/06/16 04:10:21;;;;;;;6.50;3.40;;;;;;;19.20;100.00;99701.55;104835;1263;60479;-62
2023/06/16 04:12:48;;;;;;;7.80;3.70;;;;;;;19.22;100.00;99699.92;104892;1260;72629;-63
2023/06/16 04:15:16;;;;;;;5.90;3.00;;;;;;;19.24;100.00;99700.69;104997;1259;66019;-64
2023/06/16 04:17:44;;;;;;;10.30;4.40;;;;;;;19.26;100.00;99699.43;105110;1263;71614;-75
2023/06/16 04:20:12;;;;;;;7.50;3.40;;;;;;;19.25;100.00;99693.55;105447;1263;59233;-65
2023/06/16 04:22:40;;;;;;;8.60;3.70;;;;;;;19.24;100.00;99691.59;104971;1263;60494;-65
2023/06/16 04:25:09;;;;;;;5.10;3.60;;;;;;;19.27;100.00;99694.43;105319;1262;73758;-64
2023/06/16 04:27:37;;;;;;;5.80;3.30;;;;;;;19.32;100.00;99688.70;104933;1260;67009;-66
2023/06/16 04:30:06;;;;;;;7.70;3.50;;;;;;;19.35;100.00;99684.11;104936;1259;73006;-65
2023/06/16 04:32:35;;;;;;;5.70;3.70;;;;;;;19.37;100.00;99687.25;104821;1267;60540;-65
2023/06/16 04:35:05;;;;;;;5.90;3.20;;;;;;;19.39;100.00;99682.29;104854;1260;60331;-66
2023/06/16 04:37:32;;;;;;;7.40;3.60;;;;;;;19.41;100.00;99681.13;105451;1260;72613;-66
2023/06/16 04:40:00;;;;;;;7.30;3.90;;;;;;;19.43;100.00;99682.69;104925;1263;67706;-64
2023/06/16 04:42:28;;;;;;;5.80;3.10;;;;;;;19.46;100.00;99683.34;104944;1261;71053;-63
2023/06/16 04:44:55;;;;;;;6.60;3.30;;;;;;;19.48;100.00;99681.42;104897;1260;60434;-63
2023/06/16 04:47:23;;;;;;;7.50;3.70;;;;;;;19.53;100.00;99685.50;105416;1259;60440;-65
2023/06/16 04:49:50;;;;;;;7.80;4.00;;;;;;;19.60;100.00;99684.33;105066;1263;73813;-65
2023/06/16 04:52:17;;;;;;;8.10;3.60;;;;;;;19.63;100.00;99685.42;105061;1265;65718;-65
2023/06/16 04:54:45;;;;;;;6.00;3.30;;;;;;;19.63;100.00;99685.68;104536;1261;72765;-66
2023/06/16 04:57:13;;;;;;;8.40;3.60;;;;;;;19.64;100.00;99685.95;105003;1259;60733;-66
2023/06/16 04:59:40;;;;;;;5.80;3.30;;;;;;;19.68;100.00;99686.19;104947;1261;60227;-74
2023/06/16 05:02:07;;;;;;;8.10;4.20;;;;;;;19.75;100.00;99685.90;104728;1265;74201;-67
2023/06/16 05:04:35;;;;;;;6.20;3.50;;;;;;;19.83;100.00;99683.23;105270;1260;67038;-67
2023/06/16 05:07:03;;;;;;;8.70;4.40;;;;;;;19.84;100.00;99682.77;105023;1259;72976;-64
2023/06/16 05:09:30;;;;;;;8.90;3.40;;;;;;;19.85;100.00;99682.20;105141;1261;62396;-68
2023/06/16 05:11:57;;;;;;;8.40;3.90;;;;;;;19.86;100.00;99680.30;104707;1259;60457;-66
2023/06/16 05:14:24;;;;;;;7.50;3.30;;;;;;;19.90;100.00;99678.25;104888;1262;73746;-65
2023/06/16 05:16:51;;;;;;;6.50;3.60;;;;;;;19.94;100.00;99675.57;104904;1260;66269;-65
2023/06/16 05:19:18;;;;;;;6.30;3.80;;;;;;;20.04;100.00;99676.98;105199;1265;72785;-76
2023/06/16 05:21:53;;;;;;;6.20;3.30;;;;;;;20.17;100.00;99674.06;104637;1260;60466;-66
2023/06/16 05:24:21;;;;;;;7.10;3.70;;;;;;;20.31;100.00;99676.16;105132;1263;60380;-64
2023/06/16 05:26:48;;;;;;;8.50;3.50;;;;;;;20.39;100.00;99672.69;104990;1260;72546;-67
2023/06/16 05:29:15;;;;;;;6.40;3.70;;;;;;;20.42;100.00;99672.27;104942;1262;65953;-66
2023/06/16 05:31:43;;;;;;;6.90;4.20;;;;;;;20.44;100.00;99671.58;105421;1263;71890;-67
2023/06/16 05:34:10;;;;;;;8.10;3.60;;;;;;;20.40;100.00;99666.95;105197;1263;60441;-66
2023/06/16 05:36:38;;;;;;;8.20;4.00;;;;;;;20.39;100.00;99669.29;105205;1260;60600;-69
2023/06/16 05:39:07;;;;;;;8.40;4.10;;;;;;;20.46;100.00;99668.11;105064;1261;73727;-78
2023/06/16 05:41:35;;;;;;;7.90;4.50;;;;;;;20.55;100.00;99662.73;104959;1261;66976;-68
2023/06/16 05:44:03;;;;;;;6.50;3.90;;;;;;;20.55;100.00;99660.88;105085;1260;73208;-66
2023/06/16 05:46:30;;;;;;;11.70;4.40;;;;;;;20.53;100.00;99659.48;104793;1259;62117;-65
2023/06/16 05:48:58;;;;;;;9.70;4.50;;;;;;;20.57;100.00;99667.29;105056;1260;60626;-74
2023/06/16 05:51:26;;;;;;;7.00;4.40;;;;;;;20.72;100.00;99666.51;105175;1261;74289;-66
2023/06/16 05:53:53;;;;;;;8.80;5.00;;;;;;;20.88;100.00;99666.30;104934;1261;67103;-63
2023/06/16 05:56:20;;;;;;;13.10;5.10;;;;;;;20.93;100.00;99663.70;104962;1259;72533;-71
2023/06/16 05:58:47;;;;;;;10.70;5.10;;;;;;;21.02;100.00;99658.92;104919;1261;60798;-67
2023/06/16 06:01:14;;;;;;;11.80;4.80;;;;;;;21.20;100.00;99656.83;104713;1259;60484;-66
2023/06/16 06:03:45;;;;;;;7.40;5.10;;;;;;;21.35;100.00;99653.02;104910;1258;73366;-65
2023/06/16 06:06:13;;;;;;;9.90;5.50;;;;;;;21.37;100.00;99643.21;104824;1266;67411;-66
2023/06/16 06:08:41;;;;;;;6.90;4.70;;;;;;;21.39;100.00;99647.07;104910;1264;71505;-67
2023/06/16 06:11:08;;;;;;;7.40;4.60;;;;;;;21.43;100.00;99650.84;105202;1260;60449;-73
2023/06/16 06:13:37;;;;;;;9.80;5.10;;;;;;;21.48;100.00;99651.40;104969;1259;60588;-71
2023/06/16 06:16:04;;;;;;;7.60;4.50;;;;;;;21.62;100.00;99652.31;104846;1265;72567;-65
2023/06/16 06:18:31;;;;;;;8.00;4.00;;;;;;;21.80;100.00;99648.05;105161;1259;67473;-66
2023/06/16 06:20:59;;;;;;;9.00;5.10;;;;;;;22.00;100.00;99645.67;104812;1260;71476;-64
2023/06/16 06:23:27;;;;;;;9.10;5.30;;;;;;;22.17;100.00;99646.98;104866;1262;60850;-64
2023/06/16 06:25:54;;;;;;;7.00;4.50;;;;;;;22.18;100.00;99650.81;104781;1259;60482;-65
2023/06/16 06:28:23;;;;;;;8.80;5.10;;;;;;;22.13;100.00;99653.59;104930;1259;71835;-70
2023/06/16 06:30:50;;;;;;;10.30;4.70;;;;;;;22.16;100.00;99650.62;105429;1261;67504;-66
2023/06/16 06:33:17;;;;;;;8.30;4.40;;;;;;;22.23;100.00;99650.36;105346;1264;71248;-70
2023/06/16 06:35:44;;;;;;;7.80;4.30;;;;;;;22.26;100.00;99650.09;105191;1259;61278;-66
2023/06/16 06:38:12;;;;;;;7.00;4.60;;;;;;;22.19;100.00;99651.71;104873;1264;60779;-71
2023/06/16 06:40:40;;;;;;;7.20;4.20;;;;;;;22.13;100.00;99649.23;104892;1261;73846;-69
2023/06/16 06:43:08;;;;;;;6.60;4.00;;;;;;;22.20;100.00;99644.00;105068;1258;67186;-70
2023/06/16 06:45:44;;;;;;;9.20;4.70;;;;;;;22.37;100.00;99636.63;104651;1265;72594;-69
2023/06/16 06:48:11;;;;;;;7.40;4.20;;;;;;;22.58;100.00;99630.80;104902;1259;60515;-68
2023/06/16 06:50:39;;;;;;;10.10;4.80;;;;;;;22.87;100.00;99628.70;104858;1259;60572;-68
2023/06/16 06:53:07;;;;;;;10.60;4.60;;;;;;;23.25;100.00;99626.70;105066;1259;72739;-72
2023/06/16 06:55:34;;;;;;;8.70;4.80;;;;;;;23.77;100.00;99620.91;104583;1259;68255;-68
2023/06/16 06:58:02;;;;;;;8.40;4.60;;;;;;;24.52;100.00;99617.14;104955;1259;71798;-69
2023/06/16 07:00:29;;;;;;;9.10;4.60;;;;;;;25.35;100.00;99615.45;105051;1260;60582;-69
2023/06/16 07:02:56;;;;;;;9.50;4.10;;;;;;;26.01;100.00;99613.59;105117;1258;60455;-70
2023/06/16 07:05:23;;;;;;;7.60;3.80;;;;;;;26.52;100.00;99617.02;105132;1260;72548;-71
2023/06/16 07:07:50;;;;;;;8.80;4.20;;;;;;;26.73;100.00;99612.99;105470;1258;66342;-68
2023/06/16 07:10:17;;;;;;;7.60;3.90;;;;;;;26.76;100.00;99615.10;105487;1259;71799;-69
2023/06/16 07:12:45;;;;;;;6.10;4.20;;;;;;;26.81;100.00;99615.85;105228;1270;60367;-68
2023/06/16 07:15:12;;;;;;;7.70;4.20;;;;;;;26.77;100.00;99613.50;105106;1258;60580;-71
2023/06/16 07:17:40;;;;;;;7.20;3.90;;;;;;;26.87;100.00;99612.73;104910;1263;74405;-67
2023/06/16 07:20:09;;;;;;;9.30;3.80;;;;;;;27.08;100.00;99614.34;104899;1259;67209;-67
2023/06/16 07:22:38;;;;;;;7.40;4.00;;;;;;;27.25;100.00;99613.14;105184;1258;72807;-68
2023/06/16 07:25:06;;;;;;;6.40;3.60;;;;;;;27.56;100.00;99611.91;105550;1260;60507;-71
2023/06/16 07:27:33;;;;;;;7.10;4.00;;;;;;;27.91;100.00;99611.63;105381;1266;60346;-67
2023/06/16 07:30:00;;;;;;;9.00;4.40;;;;;;;28.17;100.00;99614.77;105167;1259;72470;-69
2023/06/16 07:32:27;;;;;;;7.20;4.20;;;;;;;28.05;100.00;99617.20;104977;1260;67699;-69
2023/06/16 07:34:54;;;;;;;10.90;4.80;;;;;;;27.39;100.00;99622.80;104862;1264;72500;-69
2023/06/16 07:37:21;;;;;;;10.50;4.60;;;;;;;26.69;100.00;99627.95;105013;1260;60543;-70
2023/06/16 07:39:48;;;;;;;8.80;4.50;;;;;;;26.31;100.00;99625.52;105397;1259;60885;-68
2023/06/16 07:42:16;;;;;;;8.30;4.00;;;;;;;26.16;100.00;99624.75;105067;1259;72713;-68
2023/06/16 07:44:43;;;;;;;7.70;5.10;;;;;;;26.15;100.00;99623.80;104887;1259;67262;-66
2023/06/16 07:47:10;;;;;;;8.80;4.70;;;;;;;26.04;100.00;99622.83;104850;1260;70683;-66
2023/06/16 07:49:37;;;;;;;9.50;4.10;;;;;;;25.81;100.00;99622.81;104544;1260;60576;-68
2023/06/16 07:52:05;;;;;;;8.30;4.60;;;;;;;25.60;100.00;99620.52;105422;1258;60747;-69
2023/06/16 07:54:32;;;;;;;7.30;4.30;;;;;;;25.43;100.00;99622.56;104991;1258;72871;-73
2023/06/16 07:56:59;;;;;;;9.10;3.80;;;;;;;25.37;100.00;99618.25;104841;1263;66111;-71
2023/06/16 07:59:26;;;;;;;7.70;4.50;;;;;;;25.45;100.00;99617.30;104950;1260;72852;-74
2023/06/16 08:01:53;;;;;;;6.50;4.00;;;;;;;25.65;100.00;99616.90;105552;1258;60455;-69
2023/06/16 08:04:21;;;;;;;6.00;3.10;;;;;;;25.66;100.00;99620.52;105160;1258;60460;-69
2023/06/16 08:06:48;;;;;;;8.10;3.00;;;;;;;25.31;100.00;99622.42;104861;1259;72695;-70
2023/06/16 08:09:16;;;;;;;7.00;3.20;;;;;;;24.81;100.00;99620.31;105653;1259;65639;-68
2023/06/16 08:11:43;;;;;;;5.30;3.20;;;;;;;24.40;100.00;99626.83;104840;1263;73334;-71
2023/06/16 08:14:10;;;;;;;6.20;3.30;;;;;;;24.07;100.00;99625.20;105359;1258;60531;-69
2023/06/16 08:16:38;;;;;;;9.70;3.80;;;;;;;23.72;100.00;99624.65;105157;1259;60778;-71
2023/06/16 08:19:06;;;;;;;6.30;3.40;;;;;;;23.52;100.00;99628.21;105048;1259;73815;-70
2023/06/16 08:21:34;;;;;;;6.70;4.10;;;;;;;23.38;100.00;99629.07;105211;1262;65651;-71
2023/06/16 08:24:02;;;;;;;8.20;3.70;;;;;;;23.29;100.00;99635.33;105572;1259;73162;-68
2023/06/16 08:26:29;;;;;;;7.40;3.50;;;;;;;23.31;100.00;99631.42;105352;1259;60452;-69
2023/06/16 08:28:56;;;;;;;6.90;3.80;;;;;;;23.36;100.00;99633.61;105412;1260;60362;-70
2023/06/16 08:31:23;;;;;;;8.00;3.70;;;;;;;23.45;100.00;99629.94;105658;1259;72778;-69
2023/06/16 08:33:51;;;;;;;5.80;3.30;;;;;;;23.56;100.00;99631.09;105681;1259;66101;-71
2023/06/16 08:36:20;;;;;;;7.50;4.00;;;;;;;23.65;100.00;99631.73;105449;1259;72044;-71
2023/06/16 08:38:48;;;;;;;7.60;3.30;;;;;;;23.69;100.00;99633.11;105148;1260;59640;-69
2023/06/16 08:41:16;;;;;;;7.60;3.80;;;;;;;23.77;100.00;99629.45;105130;1263;60601;-68
2023/06/16 08:43:43;;;;;;;4.90;3.60;;;;;;;23.90;100.00;99629.86;105249;1259;73889;-72
2023/06/16 08:46:10;;;;;;;5.80;3.70;;;;;;;24.07;100.00;99629.30;105428;1259;67163;-70
2023/06/16 08:48:38;;;;;;;6.80;3.50;;;;;;;24.24;100.00;99629.66;105513;1265;71281;-70
2023/06/16 08:51:06;;;;;;;8.80;4.00;;;;;;;24.50;100.00;99630.17;105468;1264;60450;-72
2023/06/16 08:53:33;;;;;;;6.60;3.80;;;;;;;24.87;100.00;99624.41;105372;1259;61055;-72
2023/06/16 08:56:02;;;;;;;5.40;3.30;;;;;;;25.12;100.00;99621.21;108670;1261;73809;-72
2023/06/16 08:58:30;;;;;;;7.50;3.90;;;;;;;25.21;100.00;99623.95;108731;1259;65402;-70
2023/06/16 09:01:01;;;;;;;7.40;3.40;;;;;;;25.31;100.00;99623.80;108714;1260;71446;-70
2023/06/16 09:03:32;;;;;;;6.40;3.50;;;;;;;25.50;100.00;99626.06;108701;1259;60080;-71
2023/06/16 09:06:00;;;;;;;7.70;3.50;;;;;;;25.63;100.00;99625.02;108652;1259;60146;-71
2023/06/16 09:08:28;;;;;;;10.50;3.60;;;;;;;25.59;100.00;99626.22;108786;1258;73820;-71
2023/06/16 09:10:56;;;;;;;7.20;3.40;;;;;;;25.46;100.00;99625.11;108806;1258;65952;-72
2023/06/16 09:13:24;;;;;;;6.10;3.80;;;;;;;25.31;100.00;99627.23;108774;1258;71193;-70
2023/06/16 09:15:56;;;;;;;8.20;4.50;;;;;;;25.14;100.00;99622.58;108659;1258;58795;-72
2023/06/16 09:18:24;;;;;;;9.40;4.30;;;;;;;25.00;100.00;99625.46;108737;1258;60140;-71
2023/06/16 09:20:52;;;;;;;7.10;3.90;;;;;;;24.99;100.00;99624.11;108811;1258;74203;-70
2023/06/16 09:23:27;;;;;;;7.30;4.00;;;;;;;25.12;100.00;99624.45;108795;1258;67326;-70
2023/06/16 09:25:54;;;;;;;6.40;3.60;;;;;;;25.13;100.00;99623.77;108656;1259;73496;-71
2023/06/16 09:28:34;;;;;;;7.30;3.80;;;;;;;25.03;100.00;99625.85;108739;1258;58948;-72
2023/06/16 09:31:03;;;;;;;7.60;3.70;;;;;;;24.90;100.00;99623.83;108807;1258;60519;-70
2023/06/16 09:33:39;;;;;;;6.30;3.50;;;;;;;24.84;100.00;99620.70;108751;1259;73949;-70
2023/06/16 09:36:07;;;;;;;9.90;4.60;;;;;;;24.74;100.00;99624.17;108695;1261;67287;-70
2023/06/16 09:38:37;;;;;;;9.00;4.20;;;;;;;24.58;100.00;99630.18;108654;1260;72620;-71
2023/06/16 09:41:15;;;;;;;10.60;4.80;;;;;;;24.47;100.00;99635.09;108765;1258;61221;-71
2023/06/16 09:43:42;;;;;;;8.20;4.10;;;;;;;24.36;100.00;99632.73;108694;1259;60922;-70
2023/06/16 09:46:13;;;;;;;7.20;4.00;;;;;;;24.26;100.00;99628.87;108790;1258;73965;-71
2023/06/16 09:48:49;;;;;;;9.20;4.30;;;;;;;24.19;100.00;99624.35;108735;1261;67471;-69
2023/06/16 09:51:17;;;;;;;8.30;4.30;;;;;;;24.10;100.00;99619.15;108661;1259;72668;-72
2023/06/16 09:53:46;;;;;;;7.80;4.20;;;;;;;24.02;100.00;99614.58;108755;1259;59317;-71
2023/06/16 09:56:16;;;;;;;6.50;3.30;;;;;;;24.08;100.00;99609.70;108812;1258;59073;-70
2023/06/16 09:58:44;;;;;;;7.10;3.70;;;;;;;24.21;100.00;99605.80;108698;1260;72384;-69
2023/06/16 10:01:13;;;;;;;6.70;3.90;;;;;;;24.35;100.00;99604.42;108699;1259;65789;-70
2023/06/16 10:03:43;;;;;;;6.60;3.90;;;;;;;24.47;100.00;99603.54;108796;1258;73201;-70
2023/06/16 10:06:19;;;;;;;5.30;3.50;;;;;;;24.68;100.00;99599.69;108746;1258;59261;-69
2023/06/16 10:08:47;;;;;;;6.90;3.60;;;;;;;24.99;100.00;99597.81;108678;1259;59121;-68
2023/06/16 10:11:17;;;;;;;5.80;3.50;;;;;;;25.26;100.00;99598.09;108685;1258;72177;-70
2023/06/16 10:13:50;;;;;;;7.70;3.90;;;;;;;25.39;100.00;99596.07;108822;1258;66009;-69
2023/06/16 10:16:17;;;;;;;7.70;4.40;;;;;;;25.46;100.00;99590.58;108779;1258;70516;-68
2023/06/16 10:18:45;;;;;;;7.60;3.80;;;;;;;25.62;100.00;99589.08;108740;1259;60207;-70
2023/06/16 10:21:12;;;;;;;8.20;4.10;;;;;;;25.78;100.00;99587.34;108708;1259;59011;-71
2023/06/16 10:23:39;;;;;;;5.70;4.10;;;;;;;25.87;100.00;99590.56;108761;1258;74293;-71
2023/06/16 10:26:07;;;;;;;6.40;3.80;;;;;;;26.00;100.00;99589.58;108809;1258;67326;-68
2023/06/16 10:28:35;;;;;;;5.80;3.30;;;;;;;26.18;100.00;99591.73;108769;1259;72699;-68
2023/06/16 10:31:04;;;;;;;5.70;3.90;;;;;;;26.28;100.00;99590.26;108765;1260;59395;-69
2023/06/16 10:33:51;;;;;;;6.90;4.10;;;;;;;26.43;100.00;99589.71;108734;1258;60908;-68
2023/06/16 10:36:38;;;;;;;8.20;3.60;;;;;;;26.71;100.00;99586.63;108764;1259;75120;-70
2023/06/16 10:39:09;;;;;;;10.10;4.20;;;;;;;26.95;100.00;99583.98;108719;1259;66351;-68
2023/06/16 10:41:51;;;;;;;6.40;3.90;;;;;;;27.17;100.00;99583.92;108717;1257;72382;-69
2023/06/16 10:44:29;;;;;;;8.60;3.80;;;;;;;27.51;100.00;99580.54;108741;1257;60312;-68
2023/06/16 10:47:08;;;;;;;7.30;3.90;;;;;;;27.88;100.00;99573.98;108857;1258;58845;-70
2023/06/16 10:49:51;;;;;;;6.60;4.00;;;;;;;28.34;100.00;99572.99;108858;1257;73794;-68
2023/06/16 10:52:31;;;;;;;9.40;4.20;;;;;;;28.63;100.00;99572.23;108819;1259;66035;-72
2023/06/16 10:54:59;;;;;;;9.80;4.10;;;;;;;28.88;100.00;99568.34;108845;1258;73029;-68
2023/06/16 10:57:26;;;;;;;7.40;4.10;;;;;;;28.95;100.00;99566.94;108812;1259;60944;-68
2023/06/16 11:00:11;;;;;;;8.10;3.70;;;;;;;28.77;100.00;99568.02;108860;1258;59178;-68
2023/06/16 11:02:47;;;;;;;6.90;4.00;;;;;;;28.60;100.00;99568.06;108704;1259;74301;-68
2023/06/16 11:05:15;;;;;;;5.20;3.30;;;;;;;28.49;100.00;99565.23;108776;1258;68116;-70
2023/06/16 11:07:43;;;;;;;6.90;3.90;;;;;;;28.40;100.00;99563.25;108782;1258;72756;-69
2023/06/16 11:10:15;;;;;;;10.90;3.80;;;;;;;28.32;100.00;99563.27;108705;1259;60469;-70
2023/06/16 11:12:42;;;;;;;7.40;3.90;;;;;;;28.30;100.00;99558.89;108765;1259;59102;-68
2023/06/16 11:15:10;;;;;;;5.80;3.40;;;;;;;28.30;100.00;99555.55;108791;1259;72954;-68
2023/06/16 11:17:41;;;;;;;6.60;3.60;;;;;;;28.18;100.00;99554.40;108690;1259;66129;-69
2023/06/16 11:20:09;;;;;;;7.00;4.20;;;;;;;28.17;100.00;99557.27;108632;1259;72312;-71
2023/06/16 11:22:37;;;;;;;9.20;4.00;;;;;;;28.34;100.00;99556.69;108781;1258;60461;-69
2023/06/16 11:25:04;;;;;;;8.30;4.20;;;;;;;28.38;100.00;99553.90;108744;1258;59507;-68
2023/06/16 11:27:32;;;;;;;5.60;3.60;;;;;;;28.43;100.00;99551.89;108789;1259;72656;-68